Time;durP1;ratioP1;P1;durP2;ratioP2;P2;SDS_P1;SDS_P2;PMS_P1;PMS_P2;Temp;Humidity;BMP_temperature;BMP_pressure;BME280_temperature;BME280_humidity;BME280_pressure;Samples;Min_cycle;Max_cycle;Signal;HPM_P1;HPM_P2
2023/12/10 00:02:13;;;;;;;;;18.00;17.00;;;;;22.01;26.93;101334.31;246176;1177;57536;-62
2023/12/10 00:07:16;;;;;;;;;21.50;19.50;;;;;22.01;26.92;101334.58;246159;1180;73467;-62
2023/12/10 00:12:20;;;;;;;;;19.00;19.00;;;;;22.01;27.00;101329.70;246153;1176;73864;-62
2023/12/10 00:17:23;;;;;;;;;19.75;18.25;;;;;22.01;27.04;101332.94;246170;1179;73398;-62
2023/12/10 00:22:26;;;;;;;;;21.00;19.33;;;;;22.01;27.02;101332.05;246148;1180;57572;-62
2023/12/10 00:27:29;;;;;;;;;20.25;20.25;;;;;22.00;27.05;101326.65;246188;1180;73189;-62
2023/12/10 00:32:33;;;;;;;;;23.25;22.50;;;;;22.00;27.04;101327.40;246141;1179;57533;-62
2023/12/10 00:37:35;;;;;;;;;17.25;16.50;;;;;22.00;27.07;101328.49;246179;1177;57539;-62
2023/12/10 00:42:38;;;;;;;;;22.67;22.67;;;;;21.99;27.22;101331.14;246190;1175;57488;-62
2023/12/10 00:47:41;;;;;;;;;22.33;22.33;;;;;21.99;27.23;101328.79;246172;1177;57507;-62
2023/12/10 00:52:45;;;;;;;;;23.33;21.33;;;;;22.00;27.01;101329.13;246159;1177;57453;-62
2023/12/10 00:57:49;;;;;;;;;20.00;20.00;;;;;21.99;26.92;101321.95;246169;1180;73747;-62
2023/12/10 01:02:52;;;;;;;;;20.00;17.25;;;;;21.99;27.28;101313.95;246170;1177;57383;-62
2023/12/10 01:07:55;;;;;;;;;16.75;16.75;;;;;21.98;27.27;101308.05;246178;1180;73795;-62
2023/12/10 01:12:58;;;;;;;;;15.50;15.50;;;;;21.98;27.15;101303.15;246153;1180;57451;-62
2023/12/10 01:18:01;;;;;;;;;20.00;19.75;;;;;21.97;27.24;101300.62;246141;1179;57556;-62
2023/12/10 01:23:05;;;;;;;;;17.25;17.25;;;;;21.96;27.37;101298.14;246181;1179;72956;-62
2023/12/10 01:28:10;;;;;;;;;19.50;18.75;;;;;21.96;27.42;101291.60;245311;1188;58724;-62
2023/12/10 01:33:13;;;;;;;;;21.75;19.75;;;;;21.89;27.47;101292.41;246265;1179;72256;-62
2023/12/10 01:38:16;;;;;;;;;20.50;19.75;;;;;21.91;27.35;101291.76;246261;1180;72712;-62
2023/12/10 01:43:20;;;;;;;;;16.67;16.67;;;;;21.93;27.32;101290.64;246154;1175;57541;-62
2023/12/10 01:48:23;;;;;;;;;18.75;17.25;;;;;21.93;27.44;101287.29;246176;1179;72063;-62
2023/12/10 01:53:27;;;;;;;;;20.75;19.50;;;;;21.93;27.21;101290.12;246186;1179;73455;-62
2023/12/10 01:58:30;;;;;;;;;17.00;16.75;;;;;21.93;27.38;101292.09;246168;1177;57579;-62
2023/12/10 02:03:34;;;;;;;;;19.00;16.75;;;;;21.92;27.44;101291.84;246143;1180;57468;-62
2023/12/10 02:08:39;;;;;;;;;18.00;17.25;;;;;21.93;27.34;101280.11;246204;1179;73348;-62
2023/12/10 02:13:42;;;;;;;;;18.75;18.75;;;;;21.93;27.28;101284.09;246173;1179;74056;-62
2023/12/10 02:18:45;;;;;;;;;16.33;15.33;;;;;21.93;27.18;101294.11;246138;1180;57367;-62
2023/12/10 02:24:01;;;;;;;;;20.50;20.25;;;;;21.93;27.30;101295.02;246171;1179;73699;-62
2023/12/10 02:29:04;;;;;;;;;21.50;19.75;;;;;21.91;27.41;101299.91;246136;1179;73107;-62
2023/12/10 02:34:07;;;;;;;;;21.25;20.50;;;;;21.91;27.38;101296.10;246187;1177;72427;-62
2023/12/10 02:39:10;;;;;;;;;19.50;19.25;;;;;21.90;27.38;101300.50;246169;1179;73169;-62
2023/12/10 02:44:14;;;;;;;;;19.67;19.67;;;;;21.89;27.18;101295.95;246163;1180;57531;-62
2023/12/10 02:49:17;;;;;;;;;22.00;19.75;;;;;21.88;27.24;101292.83;246155;1179;73836;-62
2023/12/10 02:54:20;;;;;;;;;23.25;21.25;;;;;21.88;27.19;101289.36;246169;1181;74249;-62
2023/12/10 02:59:23;;;;;;;;;17.25;16.75;;;;;21.88;27.19;101286.85;246168;1179;57472;-62
2023/12/10 03:04:26;;;;;;;;;19.00;19.00;;;;;21.87;27.27;101297.64;246199;1175;57482;-62
2023/12/10 03:09:30;;;;;;;;;19.67;19.67;;;;;21.88;27.37;101288.68;246197;1177;57409;-62
2023/12/10 03:14:33;;;;;;;;;16.25;16.00;;;;;21.87;27.31;101287.14;246169;1177;57590;-62
2023/12/10 03:19:38;;;;;;;;;19.00;19.00;;;;;21.87;27.34;101275.56;246159;1180;57481;-62
2023/12/10 03:24:41;;;;;;;;;18.33;18.00;;;;;21.86;27.33;101272.91;246170;1179;73043;-62
2023/12/10 03:29:44;;;;;;;;;22.75;20.75;;;;;21.87;27.54;101271.58;246157;1177;72966;-62
2023/12/10 03:34:47;;;;;;;;;16.00;16.00;;;;;21.86;27.58;101273.84;246172;1180;75101;-62
2023/12/10 03:39:51;;;;;;;;;19.75;19.75;;;;;21.86;27.36;101281.70;246158;1180;73811;-62
2023/12/10 03:44:56;;;;;;;;;14.75;14.75;;;;;21.85;27.64;101276.14;246211;1176;73577;-62
2023/12/10 03:49:59;;;;;;;;;19.25;18.75;;;;;21.85;27.45;101279.27;246161;1175;73783;-62
2023/12/10 03:55:02;;;;;;;;;16.50;15.75;;;;;21.85;27.46;101284.92;246181;1177;73536;-62
2023/12/10 04:00:06;;;;;;;;;24.50;20.00;;;;;21.84;27.45;101278.81;246167;1177;73871;-62
2023/12/10 04:05:11;;;;;;;;;18.25;17.25;;;;;21.84;27.51;101275.97;246164;1179;73783;-62
2023/12/10 04:10:15;;;;;;;;;19.67;18.67;;;;;21.83;27.60;101267.55;246146;1180;74153;-62
2023/12/10 04:15:18;;;;;;;;;17.75;15.75;;;;;21.82;27.60;101260.55;246145;1179;57814;-62
2023/12/10 04:20:21;;;;;;;;;17.50;17.50;;;;;21.82;27.46;101263.52;246167;1177;73135;-62
2023/12/10 04:25:24;;;;;;;;;17.50;17.50;;;;;21.82;27.67;101257.39;246167;1176;57471;-62
2023/12/10 04:30:27;;;;;;;;;15.00;13.67;;;;;21.81;27.38;101252.20;246204;1176;57472;-62
2023/12/10 04:35:30;;;;;;;;;19.50;18.75;;;;;21.81;27.64;101238.66;246169;1177;73717;-62
2023/12/10 04:40:33;;;;;;;;;17.00;17.00;;;;;21.79;27.60;101237.20;246180;1179;57466;-62
2023/12/10 04:45:36;;;;;;;;;18.00;17.75;;;;;21.79;27.58;101241.55;246187;1177;57461;-62
2023/12/10 04:50:40;;;;;;;;;18.67;18.67;;;;;21.79;27.50;101246.13;246179;1175;57473;-62
2023/12/10 04:55:43;;;;;;;;;22.00;19.00;;;;;21.79;27.53;101261.63;246148;1179;72667;-62
2023/12/10 05:00:46;;;;;;;;;19.67;17.33;;;;;21.78;27.60;101259.31;246184;1177;57486;-62
2023/12/10 05:05:49;;;;;;;;;15.75;15.75;;;;;21.78;27.77;101274.77;246167;1179;73887;-62
2023/12/10 05:10:52;;;;;;;;;18.25;17.50;;;;;21.78;27.52;101279.51;246180;1177;57446;-62
2023/12/10 05:15:57;;;;;;;;;17.00;15.67;;;;;21.77;27.69;101285.61;246160;1176;57371;-62
2023/12/10 05:21:01;;;;;;;;;17.25;17.25;;;;;21.78;27.66;101291.73;246181;1179;73050;-62
2023/12/10 05:26:04;;;;;;;;;17.67;17.67;;;;;21.77;27.57;101291.09;246158;1180;73389;-62
2023/12/10 05:31:07;;;;;;;;;19.25;19.25;;;;;21.77;27.65;101290.54;246167;1179;73772;-62
2023/12/10 05:36:10;;;;;;;;;16.33;16.33;;;;;21.76;27.66;101299.52;246181;1177;57933;-62
2023/12/10 05:41:14;;;;;;;;;15.67;15.33;;;;;21.76;27.76;101296.48;246152;1179;74992;-62
2023/12/10 05:46:17;;;;;;;;;19.50;18.75;;;;;21.76;27.75;101312.44;246175;1179;78016;-62
2023/12/10 05:51:20;;;;;;;;;19.00;17.50;;;;;21.75;27.69;101309.21;246153;1178;57462;-62
2023/12/10 05:56:23;;;;;;;;;16.75;14.75;;;;;21.76;27.70;101303.23;246177;1177;57488;-62
2023/12/10 06:01:26;;;;;;;;;16.00;16.00;;;;;21.75;27.61;101299.54;246163;1176;57367;-62
2023/12/10 06:06:29;;;;;;;;;15.00;15.00;;;;;21.75;27.75;101298.95;246202;1179;57573;-62
2023/12/10 06:11:32;;;;;;;;;14.25;14.25;;;;;21.75;27.64;101293.02;246157;1176;57554;-62
2023/12/10 06:16:35;;;;;;;;;17.33;16.67;;;;;21.74;27.70;101288.14;246166;1176;57596;-62
2023/12/10 06:21:38;;;;;;;;;15.33;15.33;;;;;21.74;27.65;101284.88;246145;1176;57737;-62
2023/12/10 06:26:41;;;;;;;;;15.25;15.00;;;;;21.74;27.69;101285.22;246165;1177;57556;-62
2023/12/10 06:31:44;;;;;;;;;18.00;17.00;;;;;21.74;27.61;101291.08;246202;1177;57498;-62
2023/12/10 06:36:47;;;;;;;;;20.00;17.00;;;;;21.73;27.65;101294.14;246173;1177;57528;-62
2023/12/10 06:41:50;;;;;;;;;16.67;16.67;;;;;21.74;27.82;101291.67;246181;1176;57397;-62
2023/12/10 06:46:53;;;;;;;;;17.00;16.33;;;;;21.73;27.72;101292.30;246153;1177;57420;-62
2023/12/10 06:51:56;;;;;;;;;19.33;16.67;;;;;21.73;27.51;101305.52;246155;1180;57620;-62
2023/12/10 06:57:00;;;;;;;;;16.33;15.33;;;;;21.73;27.71;101299.20;246183;1176;57911;-62
2023/12/10 07:02:03;;;;;;;;;16.33;16.33;;;;;21.73;27.88;101300.27;246143;1178;57542;-62
2023/12/10 07:07:06;;;;;;;;;21.67;17.33;;;;;21.74;27.75;101297.28;246170;1180;57597;-62
2023/12/10 07:12:09;;;;;;;;;18.00;17.33;;;;;21.73;27.83;101297.81;246175;1176;57370;-62
2023/12/10 07:17:12;;;;;;;;;15.67;15.67;;;;;21.73;27.76;101295.27;246192;1177;57496;-62
2023/12/10 07:22:15;;;;;;;;;18.33;16.67;;;;;21.73;27.75;101296.33;246187;1177;57462;-62
2023/12/10 07:27:18;;;;;;;;;16.00;14.00;;;;;21.72;27.77;101293.30;246144;1176;57421;-62
2023/12/10 07:32:21;;;;;;;;;15.00;14.50;;;;;21.73;27.69;101298.69;246187;1177;57518;-62
2023/12/10 07:37:24;;;;;;;;;21.00;21.00;;;;;21.72;27.67;101307.45;246123;1177;57572;-62
2023/12/10 07:42:27;;;;;;;;;18.00;16.00;;;;;21.72;27.87;101309.45;246144;1177;57502;-62
2023/12/10 07:47:31;;;;;;;;;17.75;16.75;;;;;21.72;27.74;101310.95;246178;1180;73578;-62
2023/12/10 07:52:34;;;;;;;;;15.25;15.25;;;;;21.72;27.75;101320.80;246185;1177;72473;-62
2023/12/10 07:57:37;;;;;;;;;15.00;15.00;;;;;21.73;27.65;101323.56;246116;1180;57711;-62
2023/12/10 08:02:40;;;;;;;;;20.00;17.67;;;;;21.73;27.79;101330.66;246149;1180;73703;-62
2023/12/10 08:07:43;;;;;;;;;17.33;16.00;;;;;21.73;27.70;101331.24;246120;1180;57446;-62
2023/12/10 08:12:46;;;;;;;;;20.50;19.00;;;;;21.73;27.77;101331.57;246153;1176;57492;-62
2023/12/10 08:17:49;;;;;;;;;17.75;17.50;;;;;21.72;27.83;101328.39;246130;1181;57464;-62
2023/12/10 08:22:52;;;;;;;;;17.50;16.00;;;;;21.73;27.85;101329.94;246145;1177;57497;-62
2023/12/10 08:27:55;;;;;;;;;19.75;17.25;;;;;21.72;27.87;101330.17;246114;1177;57719;-62
2023/12/10 08:32:59;;;;;;;;;18.33;18.33;;;;;21.72;27.82;101325.62;246149;1177;73104;-60
2023/12/10 08:38:02;;;;;;;;;16.75;16.00;;;;;21.72;27.71;101327.41;246170;1176;73591;-60
2023/12/10 08:43:05;;;;;;;;;18.67;17.00;;;;;21.72;27.72;101329.63;246165;1180;57500;-60
2023/12/10 08:48:08;;;;;;;;;19.50;19.50;;;;;21.73;27.87;101331.77;246120;1177;57547;-60
2023/12/10 08:53:11;;;;;;;;;14.67;14.67;;;;;21.72;27.83;101334.20;246151;1180;73713;-60
2023/12/10 08:58:15;;;;;;;;;14.50;14.50;;;;;21.72;27.75;101324.82;246148;1177;57939;-60
2023/12/10 09:03:18;;;;;;;;;22.75;20.00;;;;;21.72;27.89;101323.89;246159;1180;72287;-60
2023/12/10 09:08:21;;;;;;;;;17.00;16.25;;;;;21.72;27.72;101319.70;246128;1180;74031;-60
2023/12/10 09:13:24;;;;;;;;;16.50;16.50;;;;;21.72;27.96;101315.14;246160;1177;57533;-60
2023/12/10 09:18:29;;;;;;;;;18.00;16.00;;;;;21.71;27.87;101307.40;246155;1180;73771;-60
2023/12/10 09:23:34;;;;;;;;;24.33;19.67;;;;;21.71;27.79;101309.44;246157;1176;73753;-60
2023/12/10 09:28:37;;;;;;;;;17.33;17.33;;;;;21.71;27.79;101308.86;246165;1180;74800;-60
2023/12/10 09:33:40;;;;;;;;;18.75;18.75;;;;;21.71;27.72;101303.83;246139;1180;57515;-60
2023/12/10 09:38:44;;;;;;;;;18.75;17.00;;;;;21.72;27.64;101298.14;246134;1180;74412;-61
2023/12/10 09:43:47;;;;;;;;;19.00;17.00;;;;;21.71;27.71;101293.06;246133;1176;72769;-61
2023/12/10 09:48:52;;;;;;;;;15.33;15.33;;;;;21.71;27.88;101295.45;246171;1176;57520;-61
2023/12/10 09:53:55;;;;;;;;;15.25;14.50;;;;;21.71;27.74;101289.54;246145;1177;73102;-60
2023/12/10 09:58:58;;;;;;;;;14.00;14.00;;;;;21.71;27.83;101274.89;246166;1188;73471;-61
2023/12/10 10:04:03;;;;;;;;;13.00;13.00;;;;;21.70;27.86;101273.30;246143;1180;57448;-61
2023/12/10 10:09:07;;;;;;;;;20.25;19.00;;;;;21.70;27.95;101272.84;246170;1177;73435;-61
2023/12/10 10:14:10;;;;;;;;;16.00;16.00;;;;;21.69;27.87;101275.72;246151;1177;57901;-61
2023/12/10 10:19:16;;;;;;;;;17.50;17.50;;;;;21.70;27.74;101278.98;246188;1177;75150;-61
2023/12/10 10:24:19;;;;;;;;;16.50;16.50;;;;;21.69;27.67;101281.21;246162;1180;72888;-61
2023/12/10 10:29:25;;;;;;;;;17.00;15.00;;;;;21.69;27.69;101278.91;246163;1180;73485;-61
2023/12/10 10:34:29;;;;;;;;;16.25;15.75;;;;;21.69;27.95;101274.39;246108;1177;73888;-61
2023/12/10 10:39:33;;;;;;;;;21.75;20.25;;;;;21.68;27.85;101282.92;246113;1180;73612;-62
2023/12/10 10:44:37;;;;;;;;;16.67;13.67;;;;;21.67;27.90;101275.48;246016;1180;74469;-61
2023/12/10 10:50:03;;;;;;;;;15.67;15.67;;;;;21.68;27.87;101268.68;246172;1180;73310;-61
2023/12/10 10:55:26;;;;;;;;;16.75;16.75;;;;;21.68;27.85;101256.67;246163;1188;73355;-61
2023/12/10 11:00:30;;;;;;;;;20.00;17.00;;;;;21.68;27.78;101245.77;246139;1176;73554;-62
2023/12/10 11:05:34;;;;;;;;;15.33;15.33;;;;;21.67;27.86;101241.19;246175;1177;74176;-61
2023/12/10 11:10:45;;;;;;;;;17.67;16.33;;;;;21.66;27.95;101234.95;246161;1180;73441;-61
2023/12/10 11:15:56;;;;;;;;;15.00;15.00;;;;;21.66;28.04;101220.52;246158;1180;73422;-61
2023/12/10 11:20:59;;;;;;;;;20.33;18.00;;;;;21.64;27.73;101216.65;246159;1177;73326;-61
2023/12/10 11:26:05;;;;;;;;;17.25;17.25;;;;;21.65;27.88;101216.98;246115;1180;73167;-61
2023/12/10 11:31:09;;;;;;;;;17.00;16.00;;;;;21.64;28.12;101215.56;246153;1180;73605;-61
2023/12/10 11:36:12;;;;;;;;;14.50;14.50;;;;;21.63;28.05;101220.63;246138;1176;74442;-61
2023/12/10 11:41:38;;;;;;;;;18.50;16.25;;;;;21.63;28.08;101218.83;246180;1175;72654;-61
2023/12/10 11:47:00;;;;;;;;;12.00;12.00;;;;;21.63;27.97;101213.71;246142;1179;73217;-61
2023/12/10 11:52:03;;;;;;;;;17.00;17.00;;;;;21.63;27.92;101212.67;246171;1180;73172;-61
2023/12/10 11:57:10;;;;;;;;;15.00;15.00;;;;;21.62;27.98;101201.36;246167;1180;73720;-61
2023/12/10 12:02:17;;;;;;;;;14.67;14.67;;;;;21.62;27.92;101201.77;246173;1179;74176;-61
2023/12/10 12:07:27;;;;;;;;;17.00;17.00;;;;;21.61;28.02;101199.13;246174;1175;73905;-60
2023/12/10 12:12:31;;;;;;;;;17.00;16.67;;;;;21.62;27.96;101199.59;246166;1179;72941;-61
2023/12/10 12:17:35;;;;;;;;;16.50;16.50;;;;;21.61;27.84;101197.36;246145;1179;72857;-61
2023/12/10 12:22:38;;;;;;;;;15.00;15.00;;;;;21.60;28.04;101201.64;246139;1179;74502;-61
2023/12/10 12:27:41;;;;;;;;;17.50;17.00;;;;;21.60;28.11;101208.58;246152;1180;57510;-61
2023/12/10 12:32:45;;;;;;;;;17.00;16.33;;;;;21.59;27.95;101202.09;246152;1179;57650;-61
2023/12/10 12:37:48;;;;;;;;;16.67;16.67;;;;;21.59;28.06;101200.88;246174;1179;73103;-61
2023/12/10 12:42:51;;;;;;;;;19.00;19.00;;;;;21.59;28.10;101197.95;246165;1180;57563;-61
2023/12/10 12:47:55;;;;;;;;;13.75;12.75;;;;;21.58;28.12;101196.95;246136;1175;57319;-61
2023/12/10 12:52:58;;;;;;;;;16.25;14.00;;;;;21.58;27.89;101194.10;246170;1179;72953;-61
2023/12/10 12:58:01;;;;;;;;;18.00;15.33;;;;;21.58;28.00;101197.91;246167;1181;57532;-61
2023/12/10 13:03:04;;;;;;;;;18.00;16.25;;;;;21.57;27.99;101192.57;246163;1180;74413;-61
2023/12/10 13:08:09;;;;;;;;;19.00;15.25;;;;;21.57;28.02;101185.04;246157;1176;73578;-61
2023/12/10 13:13:12;;;;;;;;;19.75;17.25;;;;;21.57;28.04;101192.48;246157;1177;72801;-61
2023/12/10 13:18:15;;;;;;;;;13.50;13.50;;;;;21.56;27.98;101194.20;246169;1179;57545;-61
2023/12/10 13:23:19;;;;;;;;;16.75;15.75;;;;;21.54;28.02;101196.05;246168;1179;74012;-61
2023/12/10 13:28:22;;;;;;;;;17.50;17.50;;;;;21.54;28.03;101197.73;246178;1179;72032;-61
2023/12/10 13:33:25;;;;;;;;;16.50;16.25;;;;;21.54;27.97;101194.84;246129;1179;72802;-61
2023/12/10 13:38:29;;;;;;;;;17.50;16.25;;;;;21.53;28.09;101184.40;246152;1177;73688;-61
2023/12/10 13:43:32;;;;;;;;;14.75;13.00;;;;;21.53;28.15;101182.06;246142;1180;57432;-61
2023/12/10 13:48:35;;;;;;;;;16.50;16.00;;;;;21.53;27.96;101177.54;246183;1179;72460;-61
2023/12/10 13:53:39;;;;;;;;;14.75;14.00;;;;;21.52;28.07;101184.05;246193;1177;73849;-61
2023/12/10 13:58:42;;;;;;;;;15.00;15.00;;;;;21.51;28.08;101182.66;246141;1180;72907;-61
2023/12/10 14:03:48;;;;;;;;;21.00;18.33;;;;;21.50;28.09;101177.73;246156;1177;73547;-61
2023/12/10 14:08:52;;;;;;;;;16.25;15.00;;;;;21.50;28.09;101170.86;246167;1179;73097;-61
2023/12/10 14:13:55;;;;;;;;;16.75;16.25;;;;;21.50;28.22;101171.66;246182;1177;57433;-61
2023/12/10 14:18:58;;;;;;;;;14.00;14.00;;;;;21.49;28.16;101183.34;246172;1179;57322;-61
2023/12/10 14:24:02;;;;;;;;;18.75;17.00;;;;;21.48;28.18;101188.16;246170;1176;73615;-61
2023/12/10 14:29:04;;;;;;;;;16.50;16.50;;;;;21.48;28.22;101193.63;246180;1180;72872;-61
2023/12/10 14:34:08;;;;;;;;;18.33;17.00;;;;;21.48;28.15;101198.70;246190;1179;57364;-61
2023/12/10 14:39:11;;;;;;;;;18.50;17.50;;;;;21.47;28.23;101197.94;246196;1180;73240;-61
2023/12/10 14:44:14;;;;;;;;;14.50;14.50;;;;;21.46;28.14;101195.87;246170;1179;57435;-61
2023/12/10 14:49:17;;;;;;;;;14.00;14.00;;;;;21.46;28.12;101190.05;246164;1177;57446;-61
2023/12/10 14:54:24;;;;;;;;;17.00;15.50;;;;;21.46;28.11;101193.20;246146;1180;73591;-61
2023/12/10 14:59:27;;;;;;;;;21.50;18.25;;;;;21.46;28.06;101192.65;246160;1179;74086;-61
2023/12/10 15:04:30;;;;;;;;;22.67;21.00;;;;;21.45;28.15;101185.15;246180;1177;57512;-61
2023/12/10 15:09:33;;;;;;;;;16.25;16.25;;;;;21.43;27.98;101188.63;246129;1179;57498;-61
2023/12/10 15:14:36;;;;;;;;;13.75;13.75;;;;;21.43;28.11;101195.36;246193;1180;57504;-61
2023/12/10 15:19:43;;;;;;;;;16.33;15.67;;;;;21.44;28.11;101198.41;246156;1180;73035;-61
2023/12/10 15:24:47;;;;;;;;;21.75;19.25;;;;;21.43;28.14;101203.59;246177;1180;71929;-61
2023/12/10 15:29:50;;;;;;;;;15.50;13.50;;;;;21.43;28.21;101207.95;246191;1180;74124;-61
2023/12/10 15:34:53;;;;;;;;;20.25;19.25;;;;;21.43;28.12;101220.64;246160;1176;57427;-61
2023/12/10 15:39:56;;;;;;;;;20.00;19.50;;;;;21.42;28.28;101224.23;246181;1180;57456;-61
2023/12/10 15:45:00;;;;;;;;;17.50;17.50;;;;;21.41;28.14;101218.86;246164;1177;74693;-61
2023/12/10 15:50:03;;;;;;;;;16.50;15.25;;;;;21.41;28.16;101223.59;246147;1179;57444;-60
2023/12/10 15:55:07;;;;;;;;;16.33;16.33;;;;;21.40;28.18;101231.52;246124;1179;74023;-61
2023/12/10 16:00:10;;;;;;;;;15.75;14.50;;;;;21.40;28.14;101233.39;246163;1180;73587;-61
2023/12/10 16:05:15;;;;;;;;;21.00;19.00;;;;;21.38;28.22;101236.79;246097;1180;72735;-61
2023/12/10 16:10:19;;;;;;;;;16.50;16.00;;;;;21.38;28.34;101246.80;246189;1180;73484;-61
2023/12/10 16:15:24;;;;;;;;;16.50;16.50;;;;;21.38;28.17;101243.05;246191;1179;73336;-61
2023/12/10 16:20:27;;;;;;;;;17.00;15.00;;;;;21.37;28.32;101253.96;246163;1179;73969;-61
2023/12/10 16:25:30;;;;;;;;;14.75;14.75;;;;;21.37;28.21;101257.83;246188;1176;57496;-61
2023/12/10 16:30:33;;;;;;;;;16.50;15.75;;;;;21.37;28.29;101258.52;246128;1180;74319;-61
2023/12/10 16:35:36;;;;;;;;;21.50;21.50;;;;;21.36;28.32;101258.23;246143;1179;72858;-61
2023/12/10 16:40:39;;;;;;;;;14.67;14.67;;;;;21.36;28.20;101256.71;246183;1177;57482;-61
2023/12/10 16:45:43;;;;;;;;;15.50;15.50;;;;;21.36;28.22;101256.34;246158;1175;57521;-61
2023/12/10 16:50:46;;;;;;;;;20.00;18.25;;;;;21.35;28.07;101250.98;246149;1177;73433;-61
2023/12/10 16:55:50;;;;;;;;;15.25;13.50;;;;;21.35;28.22;101259.19;246152;1177;57541;-61
2023/12/10 17:00:53;;;;;;;;;16.50;16.50;;;;;21.35;28.24;101260.65;246188;1179;73377;-61
2023/12/10 17:05:56;;;;;;;;;13.75;13.75;;;;;21.34;28.21;101260.95;246154;1180;74219;-61
2023/12/10 17:11:00;;;;;;;;;16.33;16.33;;;;;21.33;28.24;101265.56;246148;1180;74491;-61
2023/12/10 17:16:03;;;;;;;;;20.75;20.75;;;;;21.33;28.21;101256.30;246177;1175;74209;-61
2023/12/10 17:21:06;;;;;;;;;17.25;16.25;;;;;21.33;28.14;101259.39;246192;1179;72192;-61
2023/12/10 17:26:09;;;;;;;;;16.50;16.50;;;;;21.33;28.24;101263.10;246166;1180;57440;-61
2023/12/10 17:31:13;;;;;;;;;15.75;15.75;;;;;21.32;28.22;101276.04;246157;1177;57449;-62
2023/12/10 17:36:16;;;;;;;;;17.50;17.50;;;;;21.32;28.40;101277.66;246170;1179;73815;-61
2023/12/10 17:41:19;;;;;;;;;19.25;15.50;;;;;21.32;28.30;101275.32;246188;1176;57346;-61
2023/12/10 17:46:22;;;;;;;;;17.33;17.33;;;;;21.31;28.21;101278.50;246184;1188;57877;-61
2023/12/10 17:51:25;;;;;;;;;17.75;16.00;;;;;21.31;28.37;101281.39;246165;1176;57385;-61
2023/12/10 17:56:29;;;;;;;;;17.75;15.25;;;;;21.31;28.26;101276.02;246196;1177;72889;-61
2023/12/10 18:01:32;;;;;;;;;16.50;16.50;;;;;21.31;28.40;101279.97;246197;1177;57516;-61
2023/12/10 18:06:35;;;;;;;;;15.75;14.75;;;;;21.30;28.35;101289.36;246183;1179;57417;-61
2023/12/10 18:11:39;;;;;;;;;13.67;13.00;;;;;21.30;28.35;101287.90;246191;1177;57652;-61
2023/12/10 18:16:42;;;;;;;;;16.67;15.67;;;;;21.30;28.31;101304.23;246153;1183;72857;-61
2023/12/10 18:21:45;;;;;;;;;19.75;18.75;;;;;21.29;28.32;101302.54;246171;1180;57431;-61
2023/12/10 18:26:48;;;;;;;;;16.67;15.00;;;;;21.29;28.23;101308.94;246180;1175;57528;-61
2023/12/10 18:31:51;;;;;;;;;18.00;17.67;;;;;21.29;28.31;101314.73;246157;1181;57585;-61
2023/12/10 18:36:57;;;;;;;;;16.00;16.00;;;;;21.29;28.39;101309.13;246154;1175;73603;-61
2023/12/10 18:42:00;;;;;;;;;14.00;14.00;;;;;21.29;28.20;101308.71;246167;1180;73053;-61
2023/12/10 18:47:03;;;;;;;;;16.75;14.75;;;;;21.28;28.22;101306.45;246151;1177;57512;-61
2023/12/10 18:52:09;;;;;;;;;15.50;15.50;;;;;21.28;28.27;101309.58;246140;1180;73241;-61
2023/12/10 18:57:12;;;;;;;;;14.00;14.00;;;;;21.28;28.34;101305.42;246179;1177;74295;-61
2023/12/10 19:02:16;;;;;;;;;18.00;16.75;;;;;21.27;28.34;101307.80;246185;1178;57464;-61
2023/12/10 19:07:18;;;;;;;;;16.00;16.00;;;;;21.27;28.28;101310.73;246178;1176;57517;-61
2023/12/10 19:12:22;;;;;;;;;16.67;15.33;;;;;21.28;28.27;101308.15;246176;1175;57543;-61
2023/12/10 19:17:28;;;;;;;;;19.25;16.50;;;;;21.27;28.32;101307.73;246153;1179;73371;-61
2023/12/10 19:22:37;;;;;;;;;17.00;17.00;;;;;21.26;28.25;101314.75;246158;1175;73500;-61
2023/12/10 19:27:40;;;;;;;;;14.25;13.25;;;;;21.26;28.31;101318.31;246186;1177;74166;-61
2023/12/10 19:32:48;;;;;;;;;18.75;18.25;;;;;21.25;28.45;101321.87;246188;1180;73540;-61
2023/12/10 19:37:53;;;;;;;;;20.00;19.67;;;;;21.25;28.24;101321.33;246169;1179;73371;-61
2023/12/10 19:42:56;;;;;;;;;15.75;15.50;;;;;21.25;28.22;101326.43;246165;1180;57614;-61
2023/12/10 19:48:00;;;;;;;;;18.00;18.00;;;;;21.24;28.31;101326.02;246172;1180;57580;-61
2023/12/10 19:53:03;;;;;;;;;15.67;14.67;;;;;21.24;28.24;101322.02;246137;1180;72144;-61
2023/12/10 19:58:07;;;;;;;;;16.50;13.75;;;;;21.24;28.27;101326.77;246159;1177;74010;-61
2023/12/10 20:03:10;;;;;;;;;15.75;14.50;;;;;21.23;28.25;101325.62;246149;1180;73070;-62
2023/12/10 20:08:13;;;;;;;;;18.33;16.33;;;;;21.23;28.25;101324.56;246175;1181;73787;-61
2023/12/10 20:13:21;;;;;;;;;17.50;15.50;;;;;21.23;28.10;101323.61;246136;1180;74733;-61
2023/12/10 20:18:24;;;;;;;;;18.33;18.33;;;;;21.22;28.28;101323.33;246189;1188;73470;-61
2023/12/10 20:23:27;;;;;;;;;16.33;16.33;;;;;21.22;28.20;101319.74;246165;1179;73360;-61
2023/12/10 20:28:30;;;;;;;;;17.67;17.67;;;;;21.22;28.22;101320.70;246206;1177;57433;-61
2023/12/10 20:33:33;;;;;;;;;17.25;16.50;;;;;21.22;28.22;101327.94;246174;1179;57490;-61
2023/12/10 20:38:37;;;;;;;;;15.00;15.00;;;;;21.21;28.32;101333.55;246170;1179;72262;-61
2023/12/10 20:43:40;;;;;;;;;15.50;15.50;;;;;21.21;28.35;101331.41;246184;1177;57457;-61
2023/12/10 20:48:43;;;;;;;;;17.67;17.67;;;;;21.20;28.37;101336.48;246184;1175;57603;-61
2023/12/10 20:53:46;;;;;;;;;15.00;15.00;;;;;21.20;28.30;101339.65;246175;1180;72973;-61
2023/12/10 20:58:49;;;;;;;;;16.50;16.50;;;;;21.20;28.21;101350.20;246167;1177;57479;-61
2023/12/10 21:03:52;;;;;;;;;18.00;15.67;;;;;21.19;28.34;101339.95;246144;1176;57762;-61
2023/12/10 21:08:58;;;;;;;;;15.00;14.75;;;;;21.19;28.17;101331.73;246193;1178;57455;-62
2023/12/10 21:14:03;;;;;;;;;14.00;13.25;;;;;21.20;28.34;101330.23;246128;1176;73600;-61
2023/12/10 21:19:06;;;;;;;;;14.67;14.00;;;;;21.20;28.28;101329.02;246141;1180;73247;-61
2023/12/10 21:24:09;;;;;;;;;16.25;16.25;;;;;21.19;28.45;101323.04;246164;1180;73604;-61
2023/12/10 21:29:14;;;;;;;;;17.50;15.25;;;;;21.18;28.32;101316.36;246165;1180;57608;-62
2023/12/10 21:34:17;;;;;;;;;15.00;13.00;;;;;21.18;28.53;101312.36;246153;1180;73273;-61
2023/12/10 21:39:20;;;;;;;;;14.00;14.00;;;;;21.18;28.41;101310.22;246136;1180;73737;-61
2023/12/10 21:44:23;;;;;;;;;16.67;16.00;;;;;21.18;28.20;101309.67;246163;1180;57545;-61
2023/12/10 21:49:26;;;;;;;;;17.50;16.00;;;;;21.18;28.31;101305.31;246209;1180;73434;-61
2023/12/10 21:54:30;;;;;;;;;19.00;17.00;;;;;21.17;28.32;101301.42;246162;1178;57441;-61
2023/12/10 21:59:33;;;;;;;;;14.33;13.67;;;;;21.16;28.30;101299.48;246204;1180;73709;-61
2023/12/10 22:04:36;;;;;;;;;14.75;14.75;;;;;21.16;28.43;101299.02;246152;1180;57752;-61
2023/12/10 22:09:39;;;;;;;;;13.67;13.67;;;;;21.16;28.36;101299.39;246186;1176;57365;-61
2023/12/10 22:14:42;;;;;;;;;14.00;14.00;;;;;21.15;28.20;101298.90;246186;1179;73172;-61
2023/12/10 22:19:45;;;;;;;;;13.00;13.00;;;;;21.15;28.27;101298.77;246207;1179;57518;-61
2023/12/10 22:24:48;;;;;;;;;14.67;14.67;;;;;21.15;28.28;101292.08;246159;1179;57560;-62
2023/12/10 22:29:51;;;;;;;;;16.00;14.75;;;;;21.13;28.30;101292.05;246206;1176;57978;-62
2023/12/10 22:34:54;;;;;;;;;18.00;15.00;;;;;21.12;28.17;101287.98;246159;1177;57492;-61
2023/12/10 22:39:57;;;;;;;;;17.00;15.00;;;;;21.13;28.12;101289.92;246186;1176;57436;-62
2023/12/10 22:45:02;;;;;;;;;15.75;15.75;;;;;21.12;28.11;101291.13;246181;1177;72860;-61